createdAt,value
2022-08-18T00:01:25.854Z,26.55
2022-08-18T00:03:59.343Z,26.34
2022-08-18T00:06:32.570Z,26.26
2022-08-18T00:09:09.513Z,26.34
2022-08-18T00:11:43.394Z,25.66
2022-08-18T00:14:22.239Z,25.35
2022-08-18T00:16:55.077Z,25.51
2022-08-18T00:19:46.803Z,25.53
2022-08-18T00:22:16.305Z,25.66
2022-08-18T00:24:57.590Z,25.72
2022-08-18T00:27:29.126Z,25.79
2022-08-18T00:29:59.507Z,26.06
2022-08-18T00:32:30.833Z,26.21
2022-08-18T00:35:09.853Z,26.33
2022-08-18T00:37:42.864Z,26.35
2022-08-18T00:40:16.725Z,26.43
2022-08-18T00:42:54.072Z,26.44
2022-08-18T00:45:27.925Z,26.42
2022-08-18T00:47:59.656Z,26.44
2022-08-18T00:50:42.051Z,26.40
2022-08-18T00:53:11.829Z,25.95
2022-08-18T00:55:43.811Z,26.02
2022-08-18T00:58:28.565Z,26.09
2022-08-18T01:00:58.868Z,25.95
2022-08-18T01:03:35.372Z,25.74
2022-08-18T01:06:06.938Z,25.19
2022-08-18T01:08:37.315Z,25.42
2022-08-18T01:11:07.678Z,25.69
2022-08-18T01:13:40.260Z,25.69
2022-08-18T01:19:43.151Z,25.97
2022-08-18T01:22:38.207Z,25.88
2022-08-18T01:25:26.412Z,25.93
2022-08-18T01:28:00.706Z,25.50
2022-08-18T01:30:49.205Z,25.58
2022-08-18T01:33:19.891Z,25.48
2022-08-18T01:35:50.147Z,25.57
2022-08-18T01:38:20.319Z,25.50
2022-08-18T01:41:17.648Z,25.56
2022-08-18T01:43:39.007Z,25.43
2022-08-18T01:46:10.591Z,25.66
2022-08-18T01:48:41.927Z,25.76
2022-08-18T01:51:13.672Z,25.77
2022-08-18T01:53:47.611Z,25.79
2022-08-18T01:56:19.394Z,25.79
2022-08-18T01:58:50.789Z,25.94
2022-08-18T02:01:26.000Z,25.77
2022-08-18T02:04:33.755Z,25.26
2022-08-18T02:06:58.662Z,25.61
2022-08-18T02:09:29.294Z,25.72
2022-08-18T02:11:57.566Z,25.76
2022-08-18T02:14:27.262Z,25.60
2022-08-18T02:17:02.094Z,25.80
2022-08-18T02:19:37.413Z,25.93
2022-08-18T02:22:11.705Z,25.40
2022-08-18T02:24:41.478Z,25.30
2022-08-18T02:27:12.092Z,25.46
2022-08-18T02:29:44.994Z,25.68
2022-08-18T02:32:14.995Z,25.52
2022-08-18T02:34:45.238Z,25.51
2022-08-18T02:37:15.734Z,25.59
2022-08-18T02:39:46.912Z,25.83
2022-08-18T02:42:17.084Z,25.91
2022-08-18T02:44:45.826Z,25.93
2022-08-18T02:47:16.093Z,25.37
2022-08-18T02:49:47.237Z,24.93
2022-08-18T02:52:16.667Z,23.87
2022-08-18T02:54:45.808Z,23.26
2022-08-18T02:57:14.772Z,22.91
2022-08-18T02:59:47.345Z,22.61
2022-08-18T03:02:17.718Z,22.29
2022-08-18T03:04:46.681Z,22.12
2022-08-18T03:07:15.704Z,21.81
2022-08-18T03:09:46.428Z,21.64
2022-08-18T03:12:20.320Z,21.97
2022-08-18T03:14:52.541Z,21.60
2022-08-18T03:17:21.497Z,21.47
2022-08-18T03:19:51.765Z,21.56
2022-08-18T03:22:28.655Z,21.52
2022-08-18T03:24:59.131Z,21.40
2022-08-18T03:27:29.478Z,21.54
2022-08-18T03:30:00.321Z,21.73
2022-08-18T03:32:33.629Z,21.48
2022-08-18T03:35:03.205Z,21.13
2022-08-18T03:37:33.461Z,21.01
2022-08-18T03:40:04.017Z,21.01
2022-08-18T03:42:34.761Z,21.21
2022-08-18T03:45:17.270Z,21.01
2022-08-18T03:47:49.025Z,21.54
2022-08-18T03:50:20.649Z,21.59
2022-08-18T03:52:50.707Z,21.57
2022-08-18T03:55:20.686Z,21.68
2022-08-18T03:57:53.883Z,22.03
2022-08-18T04:00:23.857Z,22.09
2022-08-18T04:02:53.508Z,22.62
2022-08-18T04:05:24.046Z,22.77
2022-08-18T04:07:51.946Z,22.99
2022-08-18T04:10:23.268Z,22.62
2022-08-18T04:12:52.260Z,23.17
2022-08-18T04:15:24.601Z,23.37
2022-08-18T04:18:14.825Z,23.51
2022-08-18T04:20:57.695Z,23.74
2022-08-18T04:23:28.464Z,23.65
2022-08-18T04:26:01.443Z,23.95
2022-08-18T04:28:31.370Z,23.96
2022-08-18T04:31:00.321Z,24.04
2022-08-18T04:33:30.241Z,24.09
2022-08-18T04:35:59.278Z,24.20
2022-08-18T04:38:28.210Z,24.26
2022-08-18T04:41:07.815Z,24.26
2022-08-18T04:43:41.907Z,23.86
2022-08-18T04:46:12.107Z,23.57
2022-08-18T04:48:42.388Z,23.03
2022-08-18T04:51:13.824Z,23.07
2022-08-18T04:54:03.709Z,23.28
2022-08-18T04:56:38.690Z,22.80
2022-08-18T04:59:09.646Z,23.35
2022-08-18T05:01:43.033Z,22.56
2022-08-18T05:04:16.541Z,22.22
2022-08-18T05:06:46.777Z,22.41
2022-08-18T05:09:22.850Z,22.67
2022-08-18T05:11:53.642Z,22.53
2022-08-18T05:14:23.202Z,22.88
2022-08-18T05:16:58.475Z,23.12
2022-08-18T05:19:29.542Z,23.39
2022-08-18T05:22:02.941Z,23.63
2022-08-18T05:24:37.202Z,23.56
2022-08-18T05:27:08.241Z,23.25
2022-08-18T05:29:41.406Z,23.62
2022-08-18T05:32:46.550Z,23.88
2022-08-18T05:35:08.745Z,23.50
2022-08-18T05:37:57.709Z,23.75
2022-08-18T05:40:28.246Z,24.06
2022-08-18T05:43:02.472Z,24.37
2022-08-18T05:45:31.898Z,24.49
2022-08-18T05:48:01.905Z,24.66
2022-08-18T05:50:31.838Z,24.82
2022-08-18T05:53:13.467Z,24.69
2022-08-18T05:56:06.997Z,24.56
2022-08-18T05:58:38.725Z,23.80
2022-08-18T06:01:09.656Z,24.09
2022-08-18T06:03:46.753Z,24.13
2022-08-18T06:06:22.548Z,24.39
2022-08-18T06:08:59.069Z,24.58
2022-08-18T06:11:29.401Z,24.51
2022-08-18T06:14:07.456Z,24.65
2022-08-18T06:19:52.193Z,24.65
2022-08-18T06:22:52.173Z,24.44
2022-08-18T06:25:35.292Z,24.17
2022-08-18T06:28:17.639Z,24.58
2022-08-18T06:30:56.058Z,24.70
2022-08-18T06:33:58.158Z,24.89
2022-08-18T06:36:37.357Z,24.75
2022-08-18T06:39:24.398Z,24.58
2022-08-18T06:41:58.036Z,24.70
2022-08-18T06:44:39.007Z,24.84
2022-08-18T06:47:16.989Z,24.60
2022-08-18T06:50:08.917Z,24.38
2022-08-18T06:52:39.761Z,24.32
2022-08-18T06:55:11.792Z,24.46
2022-08-18T06:57:43.053Z,24.27
2022-08-18T07:00:38.790Z,24.27
2022-08-18T07:03:13.910Z,24.00
2022-08-18T07:06:04.625Z,24.01
2022-08-18T07:08:44.586Z,23.57
2022-08-18T07:11:34.549Z,23.63
2022-08-18T07:14:17.009Z,23.41
2022-08-18T07:17:07.052Z,23.55
2022-08-18T07:19:35.698Z,22.76
2022-08-18T07:22:08.112Z,22.32
2022-08-18T07:24:42.619Z,22.13
2022-08-18T07:27:14.329Z,21.90
2022-08-18T07:30:00.550Z,21.37
2022-08-18T07:32:38.085Z,21.28
2022-08-18T07:35:08.725Z,21.50
2022-08-18T07:37:44.082Z,21.39
2022-08-18T07:40:45.509Z,21.63
2022-08-18T07:43:41.064Z,21.74
2022-08-18T07:46:15.924Z,21.43
2022-08-18T07:48:45.580Z,21.68
2022-08-18T07:51:27.067Z,21.57
2022-08-18T07:54:31.067Z,21.27
2022-08-18T07:57:06.880Z,21.08
2022-08-18T07:59:45.462Z,21.19
2022-08-18T08:02:30.075Z,21.02
2022-08-18T08:05:03.690Z,21.25
2022-08-18T08:07:37.933Z,21.30
2022-08-18T08:10:14.304Z,21.13
2022-08-18T08:12:45.569Z,21.13
2022-08-18T08:15:27.089Z,21.30
2022-08-18T08:18:32.537Z,21.45
2022-08-18T08:21:11.707Z,21.79
2022-08-18T08:23:45.426Z,22.21
2022-08-18T08:26:33.480Z,21.89
2022-08-18T08:29:09.126Z,21.72
2022-08-18T08:31:43.375Z,21.78
2022-08-18T08:34:18.478Z,22.13
2022-08-18T08:36:49.242Z,22.24
2022-08-18T08:39:30.012Z,22.21
2022-08-18T08:42:29.087Z,22.25
2022-08-18T08:45:06.327Z,22.40
2022-08-18T08:47:38.068Z,22.47
2022-08-18T08:50:14.786Z,22.73
2022-08-18T08:52:49.115Z,22.74
2022-08-18T08:55:25.921Z,22.77
2022-08-18T08:58:07.873Z,22.95
2022-08-18T09:00:37.445Z,22.99
2022-08-18T09:03:30.363Z,23.09
2022-08-18T09:06:08.622Z,22.89
2022-08-18T09:08:48.717Z,22.80
2022-08-18T09:11:26.633Z,23.10
2022-08-18T09:14:09.273Z,23.29
2022-08-18T09:16:59.581Z,23.20
2022-08-18T09:19:50.688Z,23.19
2022-08-18T09:22:48.648Z,23.21
2022-08-18T09:25:36.987Z,23.19
2022-08-18T09:28:12.468Z,23.08
2022-08-18T09:30:49.245Z,22.90
2022-08-18T09:33:35.916Z,22.99
2022-08-18T09:36:19.956Z,22.93
2022-08-18T09:39:20.475Z,22.83
2022-08-18T09:41:55.362Z,22.71
2022-08-18T09:44:54.000Z,22.87
2022-08-18T09:47:27.508Z,22.46
2022-08-18T09:50:26.787Z,22.25
2022-08-18T09:53:06.802Z,22.07
2022-08-18T09:55:38.446Z,22.16
2022-08-18T09:58:14.126Z,21.99
2022-08-18T10:00:48.415Z,21.65
2022-08-18T10:03:25.920Z,21.39
2022-08-18T10:06:01.658Z,21.36
2022-08-18T10:08:37.800Z,20.95
2022-08-18T10:11:38.701Z,20.80
2022-08-18T10:14:19.642Z,20.76
2022-08-18T10:19:59.786Z,20.79
2022-08-18T10:22:40.537Z,21.09
2022-08-18T10:25:23.612Z,21.23
2022-08-18T10:27:57.441Z,21.35
2022-08-18T10:30:57.455Z,20.63
2022-08-18T10:33:44.594Z,20.10
2022-08-18T10:36:14.552Z,20.15
2022-08-18T10:38:53.229Z,20.96
2022-08-18T10:41:33.446Z,20.76
2022-08-18T10:44:20.824Z,20.56
2022-08-18T10:46:54.123Z,20.55
2022-08-18T10:49:26.956Z,20.51
2022-08-18T10:52:09.003Z,20.79
2022-08-18T10:54:51.692Z,20.95
2022-08-18T10:57:41.966Z,21.01
2022-08-18T11:00:19.957Z,21.05
2022-08-18T11:06:17.946Z,21.40
2022-08-18T11:08:55.313Z,21.67
2022-08-18T11:14:34.027Z,21.76
2022-08-18T11:17:10.650Z,21.64
2022-08-18T11:19:43.666Z,21.25
2022-08-18T11:22:31.091Z,21.31
2022-08-18T11:27:52.431Z,22.05
2022-08-18T11:30:31.015Z,22.09
2022-08-18T11:33:07.490Z,22.25
2022-08-18T11:35:46.611Z,22.56
2022-08-18T11:38:20.777Z,22.90
2022-08-18T11:41:12.607Z,22.57
2022-08-18T11:43:43.219Z,22.53
2022-08-18T11:46:31.311Z,22.97
2022-08-18T11:49:04.422Z,23.19
2022-08-18T11:51:34.421Z,23.08
2022-08-18T11:54:23.386Z,23.26
2022-08-18T11:56:53.034Z,23.73
2022-08-18T11:59:53.957Z,23.53
2022-08-18T12:02:26.691Z,23.37
2022-08-18T12:07:57.698Z,23.51
2022-08-18T12:10:30.827Z,23.57
2022-08-18T12:13:04.742Z,23.72
2022-08-18T12:15:46.660Z,23.84
2022-08-18T12:18:28.350Z,24.06
2022-08-18T12:21:03.495Z,24.80
2022-08-18T12:23:38.983Z,25.21
2022-08-18T12:26:38.705Z,25.10
2022-08-18T12:29:11.530Z,24.63
2022-08-18T12:31:42.781Z,24.18
2022-08-18T12:34:25.138Z,24.30
2022-08-18T12:37:05.018Z,24.62
2022-08-18T12:39:39.391Z,24.62
2022-08-18T12:42:08.766Z,25.00
2022-08-18T12:44:43.230Z,25.06
2022-08-18T12:47:19.526Z,24.63
2022-08-18T12:49:54.146Z,24.16
2022-08-18T12:52:27.085Z,23.88
2022-08-18T12:54:58.242Z,23.81
2022-08-18T13:00:28.995Z,23.97
2022-08-18T13:03:00.922Z,23.85
2022-08-18T13:05:30.939Z,23.49
2022-08-18T13:08:04.646Z,23.27
2022-08-18T13:10:46.128Z,23.31
2022-08-18T13:13:17.756Z,23.59
2022-08-18T13:15:55.649Z,24.32
2022-08-18T13:18:29.350Z,25.24
2022-08-18T13:21:00.153Z,25.87
2022-08-18T13:23:30.638Z,27.09
2022-08-18T13:26:02.262Z,26.67
2022-08-18T13:28:56.645Z,25.85
2022-08-18T13:32:09.500Z,27.08
2022-08-18T13:34:43.442Z,28.12
2022-08-18T13:37:13.334Z,28.62
2022-08-18T13:39:46.373Z,28.03
2022-08-18T13:42:26.839Z,28.66
2022-08-18T13:45:22.999Z,28.51
2022-08-18T13:47:54.817Z,29.31
2022-08-18T13:50:31.802Z,28.34
2022-08-18T13:53:05.803Z,27.78
2022-08-18T13:55:35.299Z,27.35
2022-08-18T13:58:17.688Z,26.90
2022-08-18T14:00:54.885Z,26.31
2022-08-18T14:03:42.510Z,26.04
2022-08-18T14:06:15.238Z,25.26
2022-08-18T14:08:50.823Z,25.56
2022-08-18T14:11:33.046Z,25.51
2022-08-18T14:14:10.106Z,25.39
2022-08-18T14:16:42.687Z,25.47
2022-08-18T14:19:32.695Z,25.11
2022-08-18T14:22:21.671Z,25.01
2022-08-18T14:25:14.474Z,25.07
2022-08-18T14:27:56.126Z,25.13
2022-08-18T14:30:26.717Z,25.02
2022-08-18T14:32:59.929Z,24.71
2022-08-18T14:36:04.681Z,24.95
2022-08-18T14:38:23.253Z,24.97
2022-08-18T14:40:55.579Z,24.97
2022-08-18T14:43:27.315Z,25.10
2022-08-18T14:46:16.586Z,25.20
2022-08-18T14:48:46.470Z,25.35
2022-08-18T14:51:20.388Z,25.12
2022-08-18T14:53:57.130Z,25.14
2022-08-18T14:56:33.750Z,25.03
2022-08-18T14:59:10.027Z,25.03
2022-08-18T15:01:42.816Z,25.10
2022-08-18T15:04:18.630Z,25.19
2022-08-18T15:06:55.883Z,24.91
2022-08-18T15:09:27.339Z,24.76
2022-08-18T15:11:57.571Z,24.78
2022-08-18T15:14:32.920Z,24.74
2022-08-18T15:17:14.565Z,24.57
2022-08-18T15:20:00.477Z,24.52
2022-08-18T15:22:49.211Z,24.51
2022-08-18T15:25:37.917Z,24.51
2022-08-18T15:28:16.569Z,24.44
2022-08-18T15:30:50.990Z,24.46
2022-08-18T15:33:27.986Z,24.44
2022-08-18T15:36:05.313Z,24.36
2022-08-18T15:38:41.777Z,24.38
2022-08-18T15:41:12.585Z,24.25
2022-08-18T15:43:48.090Z,24.25
2022-08-18T15:46:28.765Z,24.47
2022-08-18T15:49:07.705Z,24.39
2022-08-18T15:51:40.983Z,24.44
2022-08-18T15:54:19.725Z,24.37
2022-08-18T15:56:58.540Z,24.42
2022-08-18T15:59:39.933Z,24.36
2022-08-18T16:02:11.399Z,24.32
2022-08-18T16:04:44.885Z,24.36
2022-08-18T16:07:25.078Z,24.57
2022-08-18T16:12:56.355Z,24.45
2022-08-18T16:15:26.777Z,24.47
2022-08-18T16:17:56.738Z,24.54
2022-08-18T16:20:26.744Z,24.50
2022-08-18T16:22:59.660Z,24.52
2022-08-18T16:25:29.372Z,24.41
2022-08-18T16:28:13.533Z,24.43
2022-08-18T16:30:44.820Z,24.39
2022-08-18T16:33:17.529Z,24.40
2022-08-18T16:35:50.511Z,24.38
2022-08-18T16:38:21.681Z,24.34
2022-08-18T16:40:56.220Z,24.38
2022-08-18T16:43:27.644Z,24.39
2022-08-18T16:45:57.197Z,24.48
2022-08-18T16:51:01.663Z,24.50
2022-08-18T16:53:40.229Z,24.51
2022-08-18T16:56:17.410Z,24.54
2022-08-18T16:59:06.061Z,24.63
2022-08-18T17:02:00.109Z,24.52
2022-08-18T17:04:34.237Z,24.58
2022-08-18T17:07:05.980Z,24.51
2022-08-18T17:09:35.284Z,24.47
2022-08-18T17:12:07.912Z,24.44
2022-08-18T17:14:39.087Z,24.53
2022-08-18T17:17:13.063Z,24.40
2022-08-18T17:19:42.988Z,24.48
2022-08-18T17:22:19.953Z,24.57
2022-08-18T17:24:50.694Z,24.39
2022-08-18T17:27:37.581Z,24.37
2022-08-18T17:30:12.149Z,24.39
2022-08-18T17:32:40.838Z,24.29
2022-08-18T17:35:14.566Z,24.29
2022-08-18T17:37:49.582Z,24.27
2022-08-18T17:40:22.732Z,24.22
2022-08-18T17:42:54.196Z,24.24
2022-08-18T17:45:24.334Z,24.24
2022-08-18T17:47:54.378Z,24.20
2022-08-18T17:50:44.330Z,24.12
2022-08-18T17:53:14.251Z,24.15
2022-08-18T17:55:46.245Z,24.10
2022-08-18T17:58:19.236Z,24.02
2022-08-18T18:00:49.169Z,24.02
2022-08-18T18:03:20.340Z,24.06
2022-08-18T18:05:53.367Z,24.05
2022-08-18T18:08:23.263Z,23.95
2022-08-18T18:11:04.769Z,23.91
2022-08-18T18:13:35.860Z,24.00
2022-08-18T18:16:22.149Z,24.09
2022-08-18T18:19:03.690Z,23.93
2022-08-18T18:21:53.509Z,23.97
2022-08-18T18:24:32.807Z,23.85
2022-08-18T18:27:04.209Z,23.93
2022-08-18T18:29:38.750Z,23.86
2022-08-18T18:32:24.985Z,23.83
2022-08-18T18:35:12.699Z,23.72
2022-08-18T18:37:48.554Z,23.81
2022-08-18T18:40:36.226Z,23.83
2022-08-18T18:43:19.041Z,24.00
2022-08-18T18:46:18.550Z,24.09
2022-08-18T18:49:11.102Z,23.97
2022-08-18T18:51:44.376Z,23.98
2022-08-18T18:54:21.321Z,23.96
2022-08-18T18:56:54.063Z,23.84
2022-08-18T18:59:27.262Z,24.03
2022-08-18T19:02:33.707Z,24.12
2022-08-18T19:05:05.185Z,23.85
2022-08-18T19:07:47.118Z,23.93
2022-08-18T19:10:33.960Z,23.69
2022-08-18T19:13:32.513Z,23.82
2022-08-18T19:16:24.953Z,23.83
2022-08-18T19:19:37.706Z,23.85
2022-08-18T19:22:04.397Z,23.78
2022-08-18T19:24:48.880Z,23.87
2022-08-18T19:27:23.608Z,23.88
2022-08-18T19:29:59.838Z,23.88
2022-08-18T19:32:43.810Z,23.70
2022-08-18T19:35:15.946Z,23.65
2022-08-18T19:37:58.624Z,23.82
2022-08-18T19:40:40.889Z,23.62
2022-08-18T19:43:13.589Z,23.76
2022-08-18T19:45:51.778Z,23.54
2022-08-18T19:48:42.679Z,23.71
2022-08-18T19:51:13.464Z,23.68
2022-08-18T19:53:52.451Z,23.83
2022-08-18T19:56:38.392Z,23.96
2022-08-18T19:59:21.524Z,24.08
2022-08-18T20:01:52.488Z,24.17
2022-08-18T20:04:40.455Z,24.03
2022-08-18T20:07:15.683Z,24.08
2022-08-18T20:10:02.486Z,23.73
2022-08-18T20:12:35.137Z,23.78
2022-08-18T20:15:13.076Z,23.88
2022-08-18T20:18:02.014Z,23.97
2022-08-18T20:20:40.864Z,24.08
2022-08-18T20:23:28.239Z,23.80
2022-08-18T20:26:02.766Z,23.97
2022-08-18T20:28:38.847Z,24.01
2022-08-18T20:31:16.124Z,23.99
2022-08-18T20:33:48.649Z,23.81
2022-08-18T20:36:29.771Z,24.00
2022-08-18T20:39:00.949Z,24.11
2022-08-18T20:41:39.110Z,23.82
2022-08-18T20:44:29.349Z,23.52
2022-08-18T20:47:03.565Z,23.61
2022-08-18T20:49:57.736Z,23.83
2022-08-18T20:52:37.846Z,23.59
2022-08-18T20:55:17.056Z,23.61
2022-08-18T20:57:53.502Z,23.81
2022-08-18T21:00:30.220Z,23.92
2022-08-18T21:03:02.306Z,24.00
2022-08-18T21:05:37.483Z,23.79
2022-08-18T21:08:21.216Z,23.72
2022-08-18T21:10:54.504Z,23.62
2022-08-18T21:13:41.670Z,23.48
2022-08-18T21:16:21.079Z,23.66
2022-08-18T21:19:20.051Z,23.75
2022-08-18T21:21:53.198Z,23.73
2022-08-18T21:24:36.324Z,23.75
2022-08-18T21:27:12.984Z,23.69
2022-08-18T21:29:49.306Z,23.46
2022-08-18T21:32:25.426Z,23.64
2022-08-18T21:34:55.019Z,23.79
2022-08-18T21:37:27.406Z,23.86
2022-08-18T21:40:02.011Z,23.95
2022-08-18T21:42:43.616Z,23.81
2022-08-18T21:45:24.190Z,23.70
2022-08-18T21:47:59.613Z,23.82
2022-08-18T21:50:31.531Z,23.73
2022-08-18T21:53:07.692Z,23.74
2022-08-18T21:55:42.967Z,23.82
2022-08-18T21:58:17.293Z,23.87
2022-08-18T22:00:48.925Z,23.92
2022-08-18T22:03:22.449Z,24.01
2022-08-18T22:06:05.518Z,24.05
2022-08-18T22:08:35.482Z,24.07
2022-08-18T22:11:51.990Z,24.01
2022-08-18T22:14:29.033Z,23.87
2022-08-18T22:17:17.417Z,23.69
2022-08-18T22:19:47.051Z,23.76
2022-08-18T22:22:36.262Z,23.81
2022-08-18T22:25:07.189Z,23.90
2022-08-18T22:27:36.874Z,23.98
2022-08-18T22:30:06.334Z,24.04
2022-08-18T22:32:39.839Z,23.99
2022-08-18T22:35:12.691Z,24.07
2022-08-18T22:37:46.309Z,24.11
2022-08-18T22:40:22.062Z,23.99
2022-08-18T22:42:52.004Z,24.02
2022-08-18T22:48:08.645Z,23.60
2022-08-18T22:50:46.577Z,23.65
2022-08-18T22:53:16.498Z,23.68
2022-08-18T22:55:47.492Z,23.58
2022-08-18T22:58:22.094Z,23.59
2022-08-18T23:01:05.273Z,23.16
2022-08-18T23:03:41.797Z,22.91
2022-08-18T23:06:14.298Z,22.53
2022-08-18T23:08:54.373Z,22.55
2022-08-18T23:11:26.443Z,22.76
2022-08-18T23:13:55.459Z,22.69
2022-08-18T23:16:31.339Z,22.89
2022-08-18T23:19:36.088Z,23.13
2022-08-18T23:22:06.318Z,22.82
2022-08-18T23:24:39.313Z,22.55
2022-08-18T23:27:10.911Z,22.37
2022-08-18T23:29:41.925Z,22.22
2022-08-18T23:32:11.889Z,22.43
2022-08-18T23:34:40.234Z,22.18
2022-08-18T23:37:16.726Z,21.86
2022-08-18T23:39:49.346Z,21.89
2022-08-18T23:42:19.514Z,21.83
2022-08-18T23:44:52.220Z,21.98
2022-08-18T23:47:24.133Z,22.23
2022-08-18T23:49:55.432Z,22.59
2022-08-18T23:52:24.425Z,22.75
2022-08-18T23:54:55.585Z,22.69
2022-08-18T23:57:25.719Z,22.56
2022-08-18T23:59:55.126Z,22.77
